Time;durP1;ratioP1;P1;durP2;ratioP2;P2;SDS_P1;SDS_P2;PMS_P1;PMS_P2;Temp;Humidity;BMP_temperature;BMP_pressure;BME280_temperature;BME280_humidity;BME280_pressure;Samples;Min_cycle;Max_cycle;Signal;HPM_P1;HPM_P2
2022/01/21 00:01:16;;;;;;;28.75;12.07;;;;;;;-1.31;74.52;97377.78;4680846;30;20498;-56
2022/01/21 00:03:42;;;;;;;35.42;13.18;;;;;;;-1.26;74.64;97367.56;4682739;30;20069;-57
2022/01/21 00:06:08;;;;;;;28.58;13.35;;;;;;;-1.17;74.75;97366.31;4684058;30;20052;-58
2022/01/21 00:08:35;;;;;;;32.20;13.18;;;;;;;-1.18;73.65;97375.09;4684383;30;20062;-57
2022/01/21 00:11:01;;;;;;;31.27;14.43;;;;;;;-1.11;73.67;97365.47;4682785;30;20056;-58
2022/01/21 00:13:34;;;;;;;29.75;13.50;;;;;;;-1.19;73.21;97366.50;4684189;30;20140;-57
2022/01/21 00:16:05;;;;;;;28.70;12.07;;;;;;;-1.13;73.30;97375.25;4668485;30;20046;-56
2022/01/21 00:18:32;;;;;;;28.23;12.07;;;;;;;-1.25;73.29;97371.75;4684162;30;20053;-56
2022/01/21 00:31:56;;;;;;;31.70;12.75;;;;;;;-1.26;72.29;97367.56;4682813;30;20062;-57
2022/01/21 00:34:21;;;;;;;23.65;12.00;;;;;;;-1.31;72.48;97377.78;4668192;30;20065;-58
2022/01/21 00:36:47;;;;;;;28.48;12.70;;;;;;;-1.33;72.48;97378.00;4683812;30;20105;-57
2022/01/21 00:39:13;;;;;;;31.60;14.30;;;;;;;-1.24;73.41;97373.34;4683909;30;20079;-57
2022/01/21 00:41:54;;;;;;;29.85;12.68;;;;;;;-1.20;72.68;97371.94;4682207;30;20046;-56
2022/01/21 00:44:20;;;;;;;30.95;13.85;;;;;;;-1.30;71.53;97376.78;4683595;30;20370;-58
2022/01/21 00:46:46;;;;;;;25.42;11.95;;;;;;;-1.28;71.79;97357.38;4668023;30;20050;-57
2022/01/21 00:49:12;;;;;;;28.55;12.73;;;;;;;-1.32;72.15;97376.19;4682474;30;20046;-56
2022/01/21 00:51:38;;;;;;;27.95;12.00;;;;;;;-1.34;72.21;97365.22;4683265;30;20042;-58
2022/01/21 00:54:04;;;;;;;30.45;12.80;;;;;;;-1.37;72.50;97363.84;4683775;30;20416;-57
2022/01/21 00:56:29;;;;;;;32.17;14.43;;;;;;;-1.42;72.40;97361.84;4683020;30;20050;-57
2022/01/21 00:58:56;;;;;;;25.85;12.25;;;;;;;-1.43;72.50;97367.28;4683114;30;20061;-55
2022/01/21 01:01:21;;;;;;;29.48;13.40;;;;;;;-1.44;72.18;97370.88;4683365;30;20054;-58
2022/01/21 01:03:47;;;;;;;31.63;13.02;;;;;;;-1.44;72.02;97374.28;4683501;30;20050;-56
2022/01/21 01:06:13;;;;;;;33.55;13.60;;;;;;;-1.50;72.74;97380.31;4683048;30;20052;-56
2022/01/21 01:08:39;;;;;;;33.22;14.52;;;;;;;-1.32;72.64;97379.59;4683359;30;20137;-58
2022/01/21 01:21:54;;;;;;;32.45;13.52;;;;;;;-1.24;71.92;97381.13;4681626;30;20065;-56
2022/01/21 01:29:49;;;;;;;29.33;13.75;;;;;;;-1.32;72.15;97377.00;4682719;30;20140;-58
2022/01/21 01:32:15;;;;;;;28.85;13.07;;;;;;;-1.33;72.25;97377.19;4681664;30;20054;-58
2022/01/21 01:34:41;;;;;;;28.83;13.07;;;;;;;-1.28;72.90;97385.97;4682930;30;20097;-59
2022/01/21 01:37:14;;;;;;;32.85;14.35;;;;;;;-1.23;72.96;97382.75;4681482;30;20062;-58
2022/01/21 01:39:45;;;;;;;31.67;14.25;;;;;;;-1.25;71.93;97376.97;4681324;30;20049;-55
2022/01/21 01:50:30;;;;;;;33.25;14.95;;;;;;;-1.01;71.16;97383.16;4681362;30;20056;-58
2022/01/21 01:52:56;;;;;;;34.55;15.23;;;;;;;-1.10;71.42;97369.63;4667005;30;20054;-55
2022/01/21 01:55:22;;;;;;;30.90;14.38;;;;;;;-1.08;71.50;97369.44;4680986;30;20515;-56
2022/01/21 01:57:48;;;;;;;30.05;15.27;;;;;;;-1.10;71.47;97366.25;4682356;30;20092;-55
2022/01/21 02:00:14;;;;;;;35.05;14.57;;;;;;;-1.15;71.79;97365.09;4681048;30;20093;-59
2022/01/21 02:02:40;;;;;;;32.53;14.65;;;;;;;-1.26;71.92;97363.16;4682395;30;20054;-57
2022/01/21 02:05:06;;;;;;;32.35;14.27;;;;;;;-1.17;71.77;97366.31;4680975;30;20049;-58
2022/01/21 02:07:33;;;;;;;40.47;15.85;;;;;;;-1.25;71.81;97374.34;4682239;30;20050;-57
2022/01/21 02:09:59;;;;;;;38.50;14.80;;;;;;;-1.24;71.68;97366.34;4682283;30;20120;-58
2022/01/21 02:12:25;;;;;;;31.77;14.38;;;;;;;-1.15;72.00;97372.88;4681926;30;20529;-56
2022/01/21 02:14:53;;;;;;;41.50;15.82;;;;;;;-1.03;71.74;97367.81;4680999;30;20054;-59
2022/01/21 02:21:29;;;;;;;38.38;15.35;;;;;;;-0.93;71.16;97362.09;4652560;30;20057;-58
2022/01/21 02:22:55;;;;;;;32.88;14.70;;;;;;;-1.05;72.28;97359.41;4682047;30;20058;-57
2022/01/21 02:25:20;;;;;;;36.63;15.82;;;;;;;-1.05;71.13;97356.00;4680431;30;20058;-57
2022/01/21 02:27:51;;;;;;;34.30;14.68;;;;;;;-1.04;71.19;97368.00;4666231;30;20050;-57
2022/01/21 02:30:19;;;;;;;32.95;14.38;;;;;;;-1.13;71.17;97358.88;4680861;30;20050;-57
2022/01/21 02:32:51;;;;;;;33.15;15.27;;;;;;;-1.11;71.46;97368.06;4653022;30;20473;-58
2022/01/21 02:35:18;;;;;;;28.88;14.73;;;;;;;-1.21;71.60;97365.91;4666274;30;20095;-56
2022/01/21 02:37:44;;;;;;;36.15;15.02;;;;;;;-1.22;71.81;97366.94;4681665;30;20065;-57
2022/01/21 02:40:11;;;;;;;33.80;14.73;;;;;;;-1.19;71.95;97363.09;4680446;30;20105;-57
2022/01/21 02:42:37;;;;;;;40.17;15.77;;;;;;;-1.13;71.60;97364.84;4680276;30;20136;-58
2022/01/21 02:45:05;;;;;;;36.30;15.57;;;;;;;-1.10;71.62;97361.84;4680648;30;20042;-59
2022/01/21 02:47:31;;;;;;;38.42;15.23;;;;;;;-1.11;71.33;97349.84;4680211;30;20054;-59
2022/01/21 02:49:58;;;;;;;32.70;13.95;;;;;;;-1.19;71.48;97342.31;4680280;30;20087;-58
2022/01/21 02:52:27;;;;;;;28.02;13.70;;;;;;;-1.23;71.08;97351.56;4666039;30;20074;-58
2022/01/21 02:54:53;;;;;;;34.03;15.43;;;;;;;-1.23;72.08;97348.97;4680219;30;20054;-59
2022/01/21 02:57:19;;;;;;;32.53;14.55;;;;;;;-1.24;71.37;97350.72;4665822;30;20065;-58
2022/01/21 02:59:45;;;;;;;35.33;15.25;;;;;;;-1.24;71.87;97340.34;4680357;30;20332;-55
2022/01/21 03:02:13;;;;;;;28.95;12.82;;;;;;;-1.24;71.79;97348.13;4681501;30;20200;-58
2022/01/21 03:07:05;;;;;;;34.85;15.02;;;;;;;-1.33;72.01;97343.41;4665844;30;20513;-57
2022/01/21 03:09:31;;;;;;;30.35;13.50;;;;;;;-1.31;72.02;97338.81;4680070;30;20518;-59
2022/01/21 03:11:57;;;;;;;31.05;14.82;;;;;;;-1.38;71.52;97341.47;4679956;30;20065;-58
2022/01/21 03:14:23;;;;;;;34.28;14.18;;;;;;;-1.42;71.70;97341.06;4680287;30;20053;-57
2022/01/21 03:16:48;;;;;;;36.17;14.98;;;;;;;-1.45;72.04;97327.69;4681108;30;20072;-58
2022/01/21 03:19:14;;;;;;;30.73;12.82;;;;;;;-1.33;71.01;97328.63;4681349;30;20069;-59
2022/01/21 03:21:40;;;;;;;28.63;13.30;;;;;;;-1.30;71.02;97330.00;4665669;30;20437;-58
2022/01/21 03:24:06;;;;;;;33.67;13.88;;;;;;;-1.24;70.79;97337.72;4651536;30;20104;-58
2022/01/21 03:26:33;;;;;;;30.00;15.50;;;;;;;-1.20;70.88;97335.53;4651310;30;20101;-57
2022/01/21 03:29:01;;;;;;;35.13;14.70;;;;;;;-1.31;71.10;97328.41;4679749;30;20068;-59
2022/01/21 03:31:31;;;;;;;29.17;14.30;;;;;;;-1.29;71.14;97331.59;4665440;30;20116;-59
2022/01/21 03:34:00;;;;;;;28.50;13.65;;;;;;;-1.32;70.54;97322.41;4665693;30;20060;-58
2022/01/21 03:36:30;;;;;;;30.75;13.93;;;;;;;-1.29;70.90;97326.41;4679814;30;20081;-58
2022/01/21 03:38:56;;;;;;;34.53;14.10;;;;;;;-1.18;70.90;97329.13;4681821;30;20097;-58
2022/01/21 03:41:23;;;;;;;34.20;15.80;;;;;;;-1.19;71.02;97331.91;4683238;30;20188;-59
2022/01/21 03:43:49;;;;;;;32.08;14.63;;;;;;;-1.18;69.74;97310.91;4683220;30;20096;-59
2022/01/21 03:46:16;;;;;;;30.88;13.55;;;;;;;-1.13;69.93;97318.06;4682950;30;20080;-58
2022/01/21 03:48:46;;;;;;;28.33;13.38;;;;;;;-1.17;69.82;97320.28;4668856;30;20089;-57
2022/01/21 03:51:12;;;;;;;;;;;;;;;-1.16;69.95;97323.69;4683558;30;20072;-58
2022/01/21 03:53:38;;;;;;;30.23;13.20;;;;;;;-1.13;70.13;97320.66;4668737;30;20026;-57
2022/01/21 03:56:04;;;;;;;28.05;13.43;;;;;;;-1.00;69.94;97320.56;4654675;30;20046;-57
2022/01/21 03:58:30;;;;;;;32.00;14.57;;;;;;;-1.40;69.70;97278.50;4683018;30;20139;-58
2022/01/21 04:00:56;;;;;;;32.30;14.10;;;;;;;-1.30;69.85;97328.19;4683253;30;20106;-59
2022/01/21 04:03:24;;;;;;;32.90;14.75;;;;;;;-1.25;69.83;97337.97;4654310;30;20053;-58
2022/01/21 04:05:51;;;;;;;32.42;14.18;;;;;;;-1.34;69.95;97318.44;4668721;30;20061;-58
2022/01/21 04:08:17;;;;;;;33.10;15.30;;;;;;;-1.27;69.97;97319.16;4668642;30;20057;-58
2022/01/21 04:10:50;;;;;;;27.38;13.82;;;;;;;-1.26;70.65;97312.97;4684026;30;20054;-59
2022/01/21 04:13:18;;;;;;;30.92;14.40;;;;;;;-1.22;69.58;97327.94;4682976;30;20108;-55
2022/01/21 04:15:49;;;;;;;38.53;15.20;;;;;;;-1.29;69.55;97332.41;4668800;30;20045;-57
2022/01/21 04:18:17;;;;;;;35.15;15.93;;;;;;;-1.20;70.09;97340.72;4682652;30;20141;-55
2022/01/21 04:20:47;;;;;;;36.70;15.98;;;;;;;-1.18;70.53;97349.09;4682669;30;20057;-57
2022/01/21 04:23:15;;;;;;;36.55;14.63;;;;;;;-1.22;69.83;97347.94;4668531;30;20058;-58
2022/01/21 04:25:41;;;;;;;31.70;15.23;;;;;;;-1.26;69.96;97349.38;4682569;30;20060;-58
2022/01/21 04:28:07;;;;;;;35.85;15.85;;;;;;;-1.30;69.73;97348.97;4682656;30;20050;-57
2022/01/21 04:30:35;;;;;;;30.20;14.40;;;;;;;-1.33;70.04;97344.22;4682333;30;20054;-56
2022/01/21 04:33:01;;;;;;;32.63;13.98;;;;;;;-1.51;70.16;97318.94;4682360;30;20141;-58
2022/01/21 04:35:27;;;;;;;33.30;13.95;;;;;;;-1.46;70.22;97331.31;4682407;30;20050;-58
2022/01/21 04:37:57;;;;;;;34.00;15.93;;;;;;;-1.43;70.29;97330.91;4683543;30;20105;-58
2022/01/21 04:40:27;;;;;;;33.22;14.80;;;;;;;-1.28;69.56;97333.97;4668396;30;20092;-59
2022/01/21 04:48:29;;;;;;;30.25;14.75;;;;;;;-1.37;69.99;97340.44;4667554;30;20570;-58
2022/01/21 04:51:11;;;;;;;33.83;15.35;;;;;;;-1.25;70.04;97349.16;4682250;30;20098;-61
2022/01/21 04:53:38;;;;;;;34.67;15.10;;;;;;;-1.18;69.57;97346.50;4669830;30;20144;-59
2022/01/21 04:56:12;;;;;;;44.42;16.42;;;;;;;-1.38;69.67;97347.44;4681949;30;20053;-59
2022/01/21 04:58:39;;;;;;;39.85;17.50;;;;;;;-1.43;70.18;97349.88;4681892;30;20054;-61
2022/01/21 05:01:06;;;;;;;38.78;16.17;;;;;;;-1.53;69.75;97339.16;4681934;30;20095;-61
2022/01/21 05:03:34;;;;;;;36.95;15.93;;;;;;;-1.57;69.92;97337.97;4681988;30;20054;-60
2022/01/21 05:06:01;;;;;;;35.55;16.45;;;;;;;-1.61;70.31;97332.41;4681697;30;20415;-61
2022/01/21 05:11:06;;;;;;;40.90;18.25;;;;;;;-1.53;70.33;97309.75;4668927;30;20194;-61
2022/01/21 05:13:39;;;;;;;39.47;17.17;;;;;;;-1.50;70.61;97319.75;4681756;30;20433;-63
2022/01/21 05:16:31;;;;;;;45.50;17.70;;;;;;;-1.54;70.11;97323.78;4681709;30;20545;-61
2022/01/21 05:18:52;;;;;;;42.25;17.67;;;;;;;-1.76;70.22;97279.97;4681567;30;20453;-56
2022/01/21 05:21:48;;;;;;;44.45;18.40;;;;;;;-1.62;70.26;97304.03;4663457;30;20064;-58
2022/01/21 05:24:20;;;;;;;45.33;17.70;;;;;;;-1.62;70.22;97311.81;4667735;30;20435;-57
2022/01/21 05:26:54;;;;;;;40.78;17.40;;;;;;;-1.66;70.47;97301.06;4681411;30;20476;-55
2022/01/21 05:29:25;;;;;;;45.85;17.55;;;;;;;-1.78;70.19;97300.16;4682546;30;20061;-57
2022/01/21 05:31:59;;;;;;;47.08;19.27;;;;;;;-1.87;71.26;97298.81;4681088;30;20518;-59
2022/01/21 05:34:35;;;;;;;46.88;19.35;;;;;;;-1.87;70.94;97288.41;4681187;30;20078;-58
2022/01/21 05:37:12;;;;;;;46.03;19.92;;;;;;;-1.97;71.09;97283.69;4668467;30;20481;-59
2022/01/21 05:40:05;;;;;;;36.25;16.92;;;;;;;-1.97;71.63;97288.88;4681296;30;20049;-56
2022/01/21 05:42:53;;;;;;;48.42;20.02;;;;;;;-1.93;71.10;97284.84;4681139;30;20053;-59
2022/01/21 05:48:32;;;;;;;51.20;19.00;;;;;;;-2.10;71.33;97296.72;4681035;30;20145;-61
2022/01/21 05:51:17;;;;;;;52.50;20.33;;;;;;;-2.12;71.63;97276.19;4681919;30;20200;-60
2022/01/21 05:54:00;;;;;;;49.50;19.80;;;;;;;-2.08;71.36;97271.38;4681220;30;20057;-61
2022/01/21 05:56:37;;;;;;;49.58;19.75;;;;;;;-2.10;71.42;97273.38;4680827;30;20112;-58
2022/01/21 05:59:18;;;;;;;47.95;19.90;;;;;;;-2.08;71.45;97274.75;4681023;30;20045;-59
2022/01/21 06:01:46;;;;;;;49.10;19.48;;;;;;;-2.06;71.33;97274.53;4652047;30;20054;-58
2022/01/21 06:04:12;;;;;;;44.47;19.50;;;;;;;-2.02;71.60;97273.13;4681042;30;20534;-61
2022/01/21 06:06:38;;;;;;;50.70;19.98;;;;;;;-1.99;70.96;97267.50;4652345;30;20173;-61
2022/01/21 06:09:05;;;;;;;49.10;18.13;;;;;;;-1.94;70.48;97266.88;4652514;30;20057;-58
2022/01/21 06:11:30;;;;;;;48.83;19.08;;;;;;;-1.98;70.98;97268.31;4680776;30;20052;-58
2022/01/21 06:13:56;;;;;;;51.00;20.02;;;;;;;-1.98;71.45;97263.91;4666503;30;20437;-58
2022/01/21 06:16:24;;;;;;;45.25;19.65;;;;;;;-1.98;71.41;97257.91;4680728;30;20053;-58
2022/01/21 06:18:52;;;;;;;47.45;20.73;;;;;;;-2.04;71.04;97256.94;4638402;30;20152;-60
2022/01/21 06:21:20;;;;;;;55.88;21.95;;;;;;;-1.98;71.64;97260.50;4681546;30;20549;-60
2022/01/21 06:23:47;;;;;;;49.40;19.92;;;;;;;-2.06;71.41;97264.13;4652274;30;20054;-60
2022/01/21 06:26:13;;;;;;;49.88;19.70;;;;;;;-2.10;71.23;97260.38;4681633;30;20049;-58
2022/01/21 06:28:39;;;;;;;52.78;21.85;;;;;;;-2.07;71.69;97245.19;4680558;30;20430;-58
2022/01/21 06:31:05;;;;;;;59.45;22.65;;;;;;;-2.05;72.01;97247.59;4682020;30;20060;-58
2022/01/21 06:33:30;;;;;;;49.17;21.17;;;;;;;-2.07;71.26;97247.00;4680348;30;20455;-61
2022/01/21 06:35:57;;;;;;;51.47;21.27;;;;;;;-2.15;71.39;97250.63;4676456;30;20054;-60
2022/01/21 06:38:22;;;;;;;47.10;19.08;;;;;;;-2.19;71.27;97246.06;4677903;30;20074;-60
2022/01/21 06:40:49;;;;;;;51.08;20.23;;;;;;;-2.25;71.68;97239.09;4676364;30;20064;-61
2022/01/21 06:43:16;;;;;;;48.38;21.35;;;;;;;-2.26;71.55;97248.69;4677398;30;20491;-59
2022/01/21 06:45:42;;;;;;;50.47;20.60;;;;;;;-2.35;71.99;97242.94;4676076;30;20128;-61
2022/01/21 06:48:08;;;;;;;53.92;22.10;;;;;;;-2.34;71.52;97241.94;4662533;30;20360;-61
2022/01/21 06:50:38;;;;;;;64.50;22.48;;;;;;;-2.26;71.63;97242.69;4677076;30;20103;-61
2022/01/21 06:53:04;;;;;;;;;;;;;;;-2.18;71.81;97251.03;4677279;30;20425;-60
2022/01/21 06:55:29;;;;;;;58.58;21.45;;;;;;;-2.12;71.09;97252.00;4675753;30;19938;-59
2022/01/21 06:57:56;;;;;;;59.83;23.20;;;;;;;-2.14;71.25;97246.25;4676449;30;20527;-61
2022/01/21 07:00:21;;;;;;;49.53;20.40;;;;;;;-2.26;71.04;97246.09;4677551;30;20045;-62
2022/01/21 07:02:49;;;;;;;59.45;22.55;;;;;;;-2.24;71.01;97249.28;4678527;30;20536;-60
2022/01/21 07:05:17;;;;;;;57.22;23.67;;;;;;;-2.25;70.98;97245.09;4662081;30;20053;-59
2022/01/21 07:07:43;;;;;;;66.20;24.77;;;;;;;-2.31;70.92;97245.91;4679903;30;20085;-60
2022/01/21 07:10:11;;;;;;;57.75;23.15;;;;;;;-2.28;70.90;97245.50;4677720;30;20112;-61
2022/01/21 07:12:38;;;;;;;58.00;22.65;;;;;;;-2.22;70.77;97249.06;4678317;30;20057;-59
2022/01/21 07:15:06;;;;;;;62.13;22.85;;;;;;;-2.25;71.01;97239.09;4678995;30;20054;-59
2022/01/21 07:17:32;;;;;;;66.07;24.63;;;;;;;-2.26;70.42;97233.13;4678895;30;20054;-60
2022/01/21 07:19:57;;;;;;;59.70;23.58;;;;;;;-2.39;70.44;97236.56;4678920;30;20050;-61
2022/01/21 07:22:23;;;;;;;64.78;24.48;;;;;;;-2.35;70.47;97236.97;4679547;30;20074;-60
2022/01/21 07:24:49;;;;;;;53.63;22.00;;;;;;;-2.31;69.52;97256.31;4664523;30;20521;-61
2022/01/21 07:27:15;;;;;;;55.13;21.50;;;;;;;-2.38;69.86;97264.13;4678476;30;20469;-59
2022/01/21 07:29:41;;;;;;;53.00;22.23;;;;;;;-2.28;69.28;97271.47;4680138;30;20196;-61
2022/01/21 07:32:07;;;;;;;65.00;22.92;;;;;;;-2.29;69.23;97275.06;4679088;30;20061;-60
2022/01/21 07:34:34;;;;;;;54.35;22.63;;;;;;;-2.25;69.22;97278.03;4677239;30;20057;-59
2022/01/21 07:37:00;;;;;;;58.78;22.08;;;;;;;-2.35;68.82;97281.88;4677670;30;20105;-60
2022/01/21 07:39:26;;;;;;;58.70;22.45;;;;;;;-2.34;68.94;97280.88;4675447;30;20065;-60
2022/01/21 07:41:52;;;;;;;55.25;21.35;;;;;;;-2.26;68.38;97285.03;4675766;30;20057;-59
2022/01/21 07:44:18;;;;;;;46.85;19.60;;;;;;;-2.23;68.41;97282.03;4646162;30;20581;-60
2022/01/21 07:46:45;;;;;;;59.80;22.65;;;;;;;-2.23;68.13;97289.81;4677449;30;20046;-58
2022/01/21 07:49:10;;;;;;;57.08;21.50;;;;;;;-2.30;68.54;97294.22;4677706;30;20050;-60
2022/01/21 07:51:36;;;;;;;64.70;23.40;;;;;;;-2.26;69.10;97290.22;4678041;30;20050;-59
2022/01/21 07:54:03;;;;;;;54.20;22.80;;;;;;;-2.26;68.06;97287.63;4676429;30;20100;-58
2022/01/21 07:56:32;;;;;;;55.30;21.65;;;;;;;-2.32;68.15;97293.66;4679025;30;20054;-59
2022/01/21 07:58:58;;;;;;;57.60;22.80;;;;;;;-2.37;68.22;97290.88;4663796;30;20109;-57
2022/01/21 08:01:24;;;;;;;75.45;24.35;;;;;;;-2.40;67.62;97286.88;4678419;30;20112;-59
2022/01/21 08:03:50;;;;;;;54.50;22.90;;;;;;;-2.35;68.01;97288.88;4677728;30;20503;-59
2022/01/21 08:06:15;;;;;;;49.60;20.92;;;;;;;-2.49;67.24;97284.72;4678557;30;20050;-59
2022/01/21 08:08:41;;;;;;;54.58;23.10;;;;;;;-2.52;67.91;97276.34;4679974;30;20058;-61
2022/01/21 08:11:07;;;;;;;50.55;21.48;;;;;;;-2.48;67.57;97275.94;4678031;30;20108;-58
2022/01/21 08:13:33;;;;;;;51.53;23.90;;;;;;;-2.47;68.39;97280.09;4662982;30;20089;-59
2022/01/21 08:16:00;;;;;;;55.92;23.95;;;;;;;-2.35;68.09;97274.09;4677392;30;20073;-60
2022/01/21 08:18:26;;;;;;;55.72;23.15;;;;;;;-2.22;67.80;97269.84;4676869;30;20075;-59
2022/01/21 08:20:52;;;;;;;56.30;22.77;;;;;;;-2.06;67.44;97279.72;4676408;30;20053;-62
2022/01/21 08:23:18;;;;;;;59.53;24.25;;;;;;;-1.98;67.04;97282.06;4675973;30;20056;-59
2022/01/21 08:25:44;;;;;;;55.70;23.83;;;;;;;-1.96;66.70;97277.47;4680697;30;20093;-59
2022/01/21 08:28:10;;;;;;;60.90;23.38;;;;;;;-2.06;66.57;97280.53;4681661;30;20058;-60
2022/01/21 08:30:36;;;;;;;53.30;23.40;;;;;;;-2.14;66.45;97270.41;4681340;30;20109;-59
2022/01/21 08:33:03;;;;;;;54.20;23.10;;;;;;;-2.11;66.09;97274.38;4678982;30;20490;-59
2022/01/21 08:35:29;;;;;;;50.92;21.27;;;;;;;-2.04;66.35;97271.75;4680521;30;20482;-58
2022/01/21 08:37:55;;;;;;;52.30;21.92;;;;;;;-1.98;65.76;97276.88;4680296;30;20518;-59
2022/01/21 08:40:22;;;;;;;49.72;20.95;;;;;;;-2.00;65.57;97273.72;4679575;30;20056;-61
2022/01/21 08:42:48;;;;;;;51.60;21.95;;;;;;;-2.07;65.51;97260.75;4681306;30;20528;-57
2022/01/21 08:45:15;;;;;;;48.53;21.70;;;;;;;-1.99;66.99;97264.13;4680980;30;20050;-60
2022/01/21 08:47:41;;;;;;;55.30;22.45;;;;;;;-2.05;66.66;97265.75;4681671;30;20058;-59
2022/01/21 08:50:10;;;;;;;47.22;21.70;;;;;;;-2.06;66.56;97253.75;4680451;30;20054;-60
2022/01/21 08:52:37;;;;;;;47.30;20.75;;;;;;;-2.03;66.80;97250.75;4681904;30;20119;-60
2022/01/21 08:55:15;;;;;;;52.15;21.63;;;;;;;-1.92;66.71;97252.69;4679904;30;20145;-59
2022/01/21 08:57:43;;;;;;;55.25;23.27;;;;;;;-1.91;66.79;97251.69;4682113;30;20046;-58
2022/01/21 09:00:16;;;;;;;50.40;22.75;;;;;;;-1.83;67.09;97251.41;4681668;30;20054;-55
2022/01/21 09:02:42;;;;;;;52.65;21.23;;;;;;;-1.64;66.85;97246.31;4680752;30;20057;-58
2022/01/21 09:05:08;;;;;;;52.63;21.67;;;;;;;-1.65;65.76;97235.13;4681883;30;20057;-57
2022/01/21 09:07:34;;;;;;;53.55;22.45;;;;;;;-1.66;66.49;97241.31;4682638;30;20053;-60
2022/01/21 09:10:00;;;;;;;48.40;20.52;;;;;;;-1.71;65.72;97238.53;4681215;30;20057;-58
2022/01/21 09:12:25;;;;;;;50.42;21.85;;;;;;;-1.67;65.73;97236.34;4682681;30;20054;-60
2022/01/21 09:14:51;;;;;;;50.78;22.40;;;;;;;-1.72;66.13;97236.19;4681488;30;20046;-58
2022/01/21 09:17:18;;;;;;;51.85;21.48;;;;;;;-1.92;65.28;97236.31;4681689;30;20143;-57
2022/01/21 09:19:43;;;;;;;47.03;21.02;;;;;;;-1.94;66.36;97233.94;4681224;30;20050;-56
2022/01/21 09:22:09;;;;;;;54.38;21.73;;;;;;;-1.88;66.55;97229.72;4681774;30;20062;-58
2022/01/21 09:24:35;;;;;;;51.75;21.10;;;;;;;-1.89;65.71;97230.69;4680726;30;20050;-58
2022/01/21 09:27:03;;;;;;;47.85;20.13;;;;;;;-1.87;66.05;97223.50;4678074;30;20065;-57
2022/01/21 09:29:30;;;;;;;46.13;19.60;;;;;;;-1.74;65.79;97227.78;4681402;30;20141;-59
2022/01/21 09:31:56;;;;;;;45.78;18.70;;;;;;;-1.68;65.80;97217.34;4680328;30;20571;-57
2022/01/21 09:34:24;;;;;;;42.00;17.90;;;;;;;-1.73;64.60;97219.00;4679596;30;20482;-59
2022/01/21 09:36:50;;;;;;;40.35;17.83;;;;;;;-1.92;65.35;97218.13;4677231;30;20497;-57
2022/01/21 09:39:16;;;;;;;43.03;19.50;;;;;;;-1.99;66.04;97207.81;4678313;30;20084;-60
2022/01/21 09:41:43;;;;;;;39.75;17.13;;;;;;;-2.03;64.94;97211.00;4679590;30;20046;-57
2022/01/21 09:44:20;;;;;;;40.90;18.55;;;;;;;-1.99;65.04;97207.00;4679332;30;20506;-57
2022/01/21 09:46:49;;;;;;;40.60;16.83;;;;;;;-2.17;65.16;97199.94;4678675;30;20089;-59
2022/01/21 09:51:56;;;;;;;38.13;17.08;;;;;;;-2.25;64.67;97198.38;4677526;30;20046;-58
2022/01/21 09:54:24;;;;;;;42.20;17.48;;;;;;;-2.38;64.76;97193.25;4677958;30;20541;-59
2022/01/21 09:56:53;;;;;;;47.22;18.65;;;;;;;-2.35;65.20;97179.88;4678786;30;20498;-60
2022/01/21 09:59:20;;;;;;;38.10;16.88;;;;;;;-2.42;65.02;97184.31;4676955;30;20049;-59
2022/01/21 10:01:55;;;;;;;36.08;15.98;;;;;;;-2.34;64.54;97190.03;4678653;30;20049;-56
2022/01/21 10:04:25;;;;;;;36.30;15.13;;;;;;;-2.54;65.22;97182.34;4676477;30;20065;-57
2022/01/21 10:06:51;;;;;;;38.90;17.88;;;;;;;-2.41;65.72;97189.28;4677672;30;20146;-58
2022/01/21 10:09:20;;;;;;;41.05;19.15;;;;;;;-2.27;66.01;97184.81;4678254;30;20096;-59
2022/01/21 10:11:49;;;;;;;44.38;19.10;;;;;;;-2.30;64.99;97180.03;4678672;30;20092;-57
2022/01/21 10:14:16;;;;;;;42.55;19.30;;;;;;;-2.25;66.56;97189.81;4679485;30;20050;-54
2022/01/21 10:16:43;;;;;;;52.65;21.55;;;;;;;-2.16;66.58;97188.53;4677682;30;20057;-60
2022/01/21 10:19:11;;;;;;;42.40;19.33;;;;;;;-2.04;66.90;97184.25;4664600;30;20054;-54
2022/01/21 10:21:43;;;;;;;45.75;18.50;;;;;;;-1.99;66.39;97178.44;4680211;30;20065;-56
2022/01/21 10:24:14;;;;;;;44.70;19.15;;;;;;;-1.93;66.18;97182.78;4680145;30;20049;-61
2022/01/21 10:26:58;;;;;;;45.63;19.30;;;;;;;-1.96;65.84;97178.03;4680025;30;20406;-59
2022/01/21 10:29:34;;;;;;;39.03;17.63;;;;;;;-1.98;66.58;97180.03;4680126;30;20054;-58
2022/01/21 10:32:01;;;;;;;29.35;14.25;;;;;;;-2.08;65.14;97168.31;4679447;30;20069;-59
2022/01/21 10:34:29;;;;;;;39.80;18.83;;;;;;;-2.21;67.16;97181.38;4649570;30;20545;-58
2022/01/21 10:37:03;;;;;;;46.50;17.83;;;;;;;-2.20;67.48;97182.19;4679233;30;20112;-60
2022/01/21 10:39:31;;;;;;;47.85;19.70;;;;;;;-2.22;67.45;97179.00;4676111;30;20069;-58
2022/01/21 10:41:58;;;;;;;46.17;20.05;;;;;;;-2.14;68.27;97170.97;4678675;30;20054;-58
2022/01/21 10:44:27;;;;;;;43.22;20.08;;;;;;;-1.93;68.42;97167.22;4678082;30;20509;-60
2022/01/21 10:47:02;;;;;;;45.97;19.77;;;;;;;-1.83;66.93;97162.31;4676276;30;20502;-58
2022/01/21 10:49:27;;;;;;;45.47;19.67;;;;;;;-1.80;67.11;97161.91;4676849;30;20054;-58
2022/01/21 10:51:55;;;;;;;39.28;18.00;;;;;;;-1.84;65.75;97161.53;4676326;30;20085;-60
2022/01/21 10:54:26;;;;;;;42.17;18.35;;;;;;;-1.94;66.27;97158.63;4662213;30;20421;-55
2022/01/21 10:57:14;;;;;;;40.00;17.48;;;;;;;-1.97;65.80;97155.66;4677247;30;20490;-59
2022/01/21 11:00:00;;;;;;;44.50;17.60;;;;;;;-2.14;66.39;97156.19;4660896;30;20045;-57
2022/01/21 11:02:49;;;;;;;39.88;18.52;;;;;;;-2.18;66.42;97149.81;4678349;30;20504;-56
2022/01/21 11:05:21;;;;;;;42.47;17.08;;;;;;;-2.31;65.53;97147.31;4677490;30;20057;-61
2022/01/21 11:07:59;;;;;;;40.30;18.67;;;;;;;-2.32;66.53;97156.91;4678855;30;20501;-58
2022/01/21 11:10:31;;;;;;;44.08;18.65;;;;;;;-2.39;67.12;97150.16;4664703;30;20093;-55
2022/01/21 11:13:23;;;;;;;37.40;16.77;;;;;;;-2.32;67.06;97145.75;4679316;30;20072;-58
2022/01/21 11:15:56;;;;;;;34.30;17.15;;;;;;;-2.38;66.17;97139.59;4679267;30;20076;-59
2022/01/21 11:18:23;;;;;;;37.65;16.33;;;;;;;-2.41;66.22;97134.81;4677578;30;20054;-58
2022/01/21 11:20:57;;;;;;;35.30;16.85;;;;;;;-2.35;66.40;97143.56;4680848;30;20050;-60
2022/01/21 11:23:27;;;;;;;36.28;17.55;;;;;;;-2.28;66.04;97147.69;4648641;30;20466;-60
2022/01/21 11:25:56;;;;;;;35.63;16.13;;;;;;;-2.34;66.11;97137.34;4678531;30;20489;-59
2022/01/21 11:28:26;;;;;;;35.67;16.57;;;;;;;-2.40;65.89;97136.38;4678032;30;20262;-61
2022/01/21 11:30:54;;;;;;;31.67;15.57;;;;;;;-2.51;65.05;97140.44;4677769;30;20062;-59
2022/01/21 11:33:22;;;;;;;37.42;16.85;;;;;;;-2.54;66.19;97137.47;4678648;30;20057;-58
2022/01/21 11:35:50;;;;;;;33.80;15.80;;;;;;;-2.53;66.02;97137.28;4679087;30;20487;-58
2022/01/21 11:38:17;;;;;;;35.47;15.88;;;;;;;-2.60;65.78;97144.28;4677035;30;20069;-59
2022/01/21 11:40:44;;;;;;;29.65;14.35;;;;;;;-2.68;65.84;97141.94;4678119;30;20061;-59
2022/01/21 11:43:10;;;;;;;36.63;16.02;;;;;;;-2.68;66.48;97147.13;4678676;30;20056;-60
2022/01/21 11:50:43;;;;;;;31.35;15.80;;;;;;;-2.77;66.72;97138.78;4678700;30;20541;-60
2022/01/21 11:53:09;;;;;;;33.85;13.52;;;;;;;-2.76;66.65;97137.78;4676753;30;20062;-63
2022/01/21 11:55:46;;;;;;;31.77;14.95;;;;;;;-2.78;66.85;97139.78;4676540;30;20050;-63
2022/01/21 11:58:22;;;;;;;32.05;14.13;;;;;;;-2.93;66.74;97136.69;4677057;30;20140;-61
2022/01/21 12:00:51;;;;;;;30.25;14.52;;;;;;;-2.91;67.07;97132.09;4676828;30;20100;-60
2022/01/21 12:03:19;;;;;;;38.22;17.13;;;;;;;-2.90;67.35;97133.69;4663601;30;20613;-60
2022/01/21 12:05:45;;;;;;;34.00;13.82;;;;;;;-2.98;66.81;97139.09;4679354;30;20057;-59
2022/01/21 12:08:11;;;;;;;38.08;15.65;;;;;;;-3.10;66.73;97133.75;4679833;30;20050;-60
2022/01/21 12:10:37;;;;;;;33.47;15.15;;;;;;;-3.12;66.93;97127.19;4679242;30;20107;-61
2022/01/21 12:13:08;;;;;;;36.15;15.70;;;;;;;-3.05;67.32;97126.16;4679885;30;20081;-56
2022/01/21 12:20:50;;;;;;;38.75;16.55;;;;;;;-3.18;66.90;97121.00;4678139;30;20058;-60
2022/01/21 12:23:25;;;;;;;32.42;15.77;;;;;;;-3.23;66.28;97129.41;4678925;30;20056;-59
2022/01/21 12:26:18;;;;;;;33.83;15.35;;;;;;;-3.28;66.00;97123.25;4663022;30;20510;-62
2022/01/21 12:28:44;;;;;;;37.70;16.52;;;;;;;-3.24;67.52;97127.03;4677845;30;20514;-61